SARF/FMA METAR and TAF weather

Enter ICAO airport designator
Station Type Date Time Source
SARF METAR 2020/09/18 23:00 UTC NOAA

SARF 182300Z 09007KT CAVOK 23/13 Q1009


Station Type Date Time Source
SARF Decoded METAR 2020/09/18 23:00 UTC NOAA

Formosa Aerodrome, Argentina (SARF) 26-12S 058-14W 60M
Sep 18, 2020 - 07:00 PM EDT / 2020.09.18 2300 UTC
Wind: from the E (090 degrees) at 8 MPH (7 KT):0
Visibility: greater than 7 mile(s):0
Temperature: 73 F (23 C)
Dew Point: 55 F (13 C)
Relative Humidity: 53%
Pressure (altimeter): 29.80 in. Hg (1009 hPa)
ob: SARF 182300Z 09007KT CAVOK 23/13 Q1009
cycle: 23

Station Type Date Time Source
SARF TAF 2020/09/19 00:00 UTC NOAA

TAF SARF 182300Z 1900/1924 36005KT CAVOK TX28/1919Z TN14/1910Z
BECMG 1906/1908 2000 BR NSC
BECMG 1912/1913 CAVOK

Example: see airport list